sensor_id;sensor_type;location;lat;lon;timestamp;P1;durP1;ratioP1;P2;durP2;ratioP2
46563;SDS011;32291;52.010;4.446;2022-08-07T00:00:51;5.80;;;5.20;;
46563;SDS011;32291;52.010;4.446;2022-08-07T00:01:53;6.15;;;5.45;;
46563;SDS011;32291;52.010;4.446;2022-08-07T00:02:55;6.40;;;5.80;;
46563;SDS011;32291;52.010;4.446;2022-08-07T00:03:57;6.38;;;5.65;;
46563;SDS011;32291;52.010;4.446;2022-08-07T00:05:00;6.22;;;5.65;;
46563;SDS011;32291;52.010;4.446;2022-08-07T00:06:05;6.55;;;5.85;;
46563;SDS011;32291;52.010;4.446;2022-08-07T00:07:08;6.65;;;6.00;;
46563;SDS011;32291;52.010;4.446;2022-08-07T00:08:10;7.03;;;6.32;;
46563;SDS011;32291;52.010;4.446;2022-08-07T00:09:15;7.35;;;5.85;;
46563;SDS011;32291;52.010;4.446;2022-08-07T00:10:18;8.48;;;6.40;;
46563;SDS011;32291;52.010;4.446;2022-08-07T00:11:20;6.78;;;6.18;;
46563;SDS011;32291;52.010;4.446;2022-08-07T00:12:22;7.85;;;6.82;;
46563;SDS011;32291;52.010;4.446;2022-08-07T00:13:24;7.43;;;6.70;;
46563;SDS011;32291;52.010;4.446;2022-08-07T00:14:36;8.23;;;6.75;;
46563;SDS011;32291;52.010;4.446;2022-08-07T00:15:45;8.07;;;6.80;;
46563;SDS011;32291;52.010;4.446;2022-08-07T00:16:49;7.85;;;6.72;;
46563;SDS011;32291;52.010;4.446;2022-08-07T00:17:53;7.18;;;6.47;;
46563;SDS011;32291;52.010;4.446;2022-08-07T00:18:55;7.30;;;6.60;;
46563;SDS011;32291;52.010;4.446;2022-08-07T00:19:57;9.32;;;6.82;;
46563;SDS011;32291;52.010;4.446;2022-08-07T00:21:01;7.75;;;6.95;;
46563;SDS011;32291;52.010;4.446;2022-08-07T00:22:08;7.00;;;5.78;;
46563;SDS011;32291;52.010;4.446;2022-08-07T00:23:13;7.00;;;6.30;;
46563;SDS011;32291;52.010;4.446;2022-08-07T00:24:16;7.70;;;7.00;;
46563;SDS011;32291;52.010;4.446;2022-08-07T00:25:19;8.18;;;7.15;;
46563;SDS011;32291;52.010;4.446;2022-08-07T00:26:21;7.50;;;6.80;;
46563;SDS011;32291;52.010;4.446;2022-08-07T00:27:26;6.57;;;5.97;;
46563;SDS011;32291;52.010;4.446;2022-08-07T00:28:28;7.90;;;7.03;;
46563;SDS011;32291;52.010;4.446;2022-08-07T00:29:32;7.45;;;6.75;;
46563;SDS011;32291;52.010;4.446;2022-08-07T00:30:35;7.30;;;6.30;;
46563;SDS011;32291;52.010;4.446;2022-08-07T00:31:38;8.00;;;6.47;;
46563;SDS011;32291;52.010;4.446;2022-08-07T00:32:41;7.28;;;6.13;;
46563;SDS011;32291;52.010;4.446;2022-08-07T00:33:43;6.68;;;6.07;;
46563;SDS011;32291;52.010;4.446;2022-08-07T00:34:45;7.32;;;6.38;;
46563;SDS011;32291;52.010;4.446;2022-08-07T00:35:49;6.65;;;6.00;;
46563;SDS011;32291;52.010;4.446;2022-08-07T00:36:51;6.40;;;5.80;;
46563;SDS011;32291;52.010;4.446;2022-08-07T00:37:54;5.88;;;5.38;;
46563;SDS011;32291;52.010;4.446;2022-08-07T00:38:56;6.45;;;5.85;;
46563;SDS011;32291;52.010;4.446;2022-08-07T00:39:58;6.35;;;5.75;;
46563;SDS011;32291;52.010;4.446;2022-08-07T00:41:04;5.10;;;4.63;;
46563;SDS011;32291;52.010;4.446;2022-08-07T00:42:07;5.55;;;5.05;;
46563;SDS011;32291;52.010;4.446;2022-08-07T00:43:10;5.43;;;4.93;;
46563;SDS011;32291;52.010;4.446;2022-08-07T00:44:13;5.63;;;5.22;;
46563;SDS011;32291;52.010;4.446;2022-08-07T00:45:16;6.20;;;5.03;;
46563;SDS011;32291;52.010;4.446;2022-08-07T00:46:18;5.95;;;5.00;;
46563;SDS011;32291;52.010;4.446;2022-08-07T00:47:25;4.88;;;4.47;;
46563;SDS011;32291;52.010;4.446;2022-08-07T00:48:28;5.82;;;5.32;;
46563;SDS011;32291;52.010;4.446;2022-08-07T00:49:30;5.88;;;5.28;;
46563;SDS011;32291;52.010;4.446;2022-08-07T00:50:33;5.05;;;4.65;;
46563;SDS011;32291;52.010;4.446;2022-08-07T00:51:36;5.32;;;4.82;;
46563;SDS011;32291;52.010;4.446;2022-08-07T00:52:40;5.57;;;5.00;;
46563;SDS011;32291;52.010;4.446;2022-08-07T00:53:42;5.70;;;4.93;;
46563;SDS011;32291;52.010;4.446;2022-08-07T00:54:45;5.18;;;4.78;;
46563;SDS011;32291;52.010;4.446;2022-08-07T00:55:49;5.75;;;5.00;;
46563;SDS011;32291;52.010;4.446;2022-08-07T00:56:51;4.78;;;4.47;;
46563;SDS011;32291;52.010;4.446;2022-08-07T00:57:54;4.88;;;4.47;;
46563;SDS011;32291;52.010;4.446;2022-08-07T00:58:57;5.28;;;4.75;;
46563;SDS011;32291;52.010;4.446;2022-08-07T01:00:00;7.25;;;4.55;;
46563;SDS011;32291;52.010;4.446;2022-08-07T01:01:08;4.72;;;4.30;;
46563;SDS011;32291;52.010;4.446;2022-08-07T01:02:12;6.45;;;4.25;;
46563;SDS011;32291;52.010;4.446;2022-08-07T01:03:14;4.80;;;4.40;;
46563;SDS011;32291;52.010;4.446;2022-08-07T01:04:20;4.90;;;4.50;;
46563;SDS011;32291;52.010;4.446;2022-08-07T01:05:23;4.75;;;4.35;;
46563;SDS011;32291;52.010;4.446;2022-08-07T01:06:29;4.85;;;4.30;;
46563;SDS011;32291;52.010;4.446;2022-08-07T01:07:31;5.28;;;4.57;;
46563;SDS011;32291;52.010;4.446;2022-08-07T01:08:33;4.57;;;4.28;;
46563;SDS011;32291;52.010;4.446;2022-08-07T01:09:35;4.88;;;4.38;;
46563;SDS011;32291;52.010;4.446;2022-08-07T01:10:38;6.05;;;4.85;;
46563;SDS011;32291;52.010;4.446;2022-08-07T01:11:43;5.10;;;4.60;;
46563;SDS011;32291;52.010;4.446;2022-08-07T01:12:45;5.00;;;4.15;;
46563;SDS011;32291;52.010;4.446;2022-08-07T01:13:50;5.82;;;4.03;;
46563;SDS011;32291;52.010;4.446;2022-08-07T01:14:52;4.90;;;4.45;;
46563;SDS011;32291;52.010;4.446;2022-08-07T01:15:58;5.18;;;4.68;;
46563;SDS011;32291;52.010;4.446;2022-08-07T01:17:05;5.35;;;4.43;;
46563;SDS011;32291;52.010;4.446;2022-08-07T01:18:10;5.53;;;4.70;;
46563;SDS011;32291;52.010;4.446;2022-08-07T01:19:15;7.53;;;4.35;;
46563;SDS011;32291;52.010;4.446;2022-08-07T01:20:21;5.93;;;4.55;;
46563;SDS011;32291;52.010;4.446;2022-08-07T01:21:34;5.05;;;4.55;;
46563;SDS011;32291;52.010;4.446;2022-08-07T01:22:37;6.45;;;4.88;;
46563;SDS011;32291;52.010;4.446;2022-08-07T01:23:42;5.32;;;4.93;;
46563;SDS011;32291;52.010;4.446;2022-08-07T01:24:47;5.07;;;4.68;;
46563;SDS011;32291;52.010;4.446;2022-08-07T01:25:49;5.07;;;4.68;;
46563;SDS011;32291;52.010;4.446;2022-08-07T01:26:53;6.32;;;4.97;;
46563;SDS011;32291;52.010;4.446;2022-08-07T01:27:57;5.38;;;4.88;;
46563;SDS011;32291;52.010;4.446;2022-08-07T01:28:59;4.60;;;4.20;;
46563;SDS011;32291;52.010;4.446;2022-08-07T01:30:05;5.40;;;4.70;;
46563;SDS011;32291;52.010;4.446;2022-08-07T01:31:09;5.22;;;4.72;;
46563;SDS011;32291;52.010;4.446;2022-08-07T01:32:12;5.57;;;4.75;;
46563;SDS011;32291;52.010;4.446;2022-08-07T01:33:14;6.70;;;5.03;;
46563;SDS011;32291;52.010;4.446;2022-08-07T01:34:17;5.18;;;4.65;;
46563;SDS011;32291;52.010;4.446;2022-08-07T01:35:20;6.38;;;4.95;;
46563;SDS011;32291;52.010;4.446;2022-08-07T01:36:23;4.57;;;4.18;;
46563;SDS011;32291;52.010;4.446;2022-08-07T01:37:28;6.32;;;4.85;;
46563;SDS011;32291;52.010;4.446;2022-08-07T01:38:30;5.82;;;5.22;;
46563;SDS011;32291;52.010;4.446;2022-08-07T01:39:33;7.43;;;5.25;;
46563;SDS011;32291;52.010;4.446;2022-08-07T01:40:35;6.20;;;4.80;;
46563;SDS011;32291;52.010;4.446;2022-08-07T01:41:40;5.35;;;4.35;;
46563;SDS011;32291;52.010;4.446;2022-08-07T01:42:46;6.93;;;5.28;;
46563;SDS011;32291;52.010;4.446;2022-08-07T01:43:49;5.25;;;4.75;;
46563;SDS011;32291;52.010;4.446;2022-08-07T01:44:52;5.85;;;4.80;;
46563;SDS011;32291;52.010;4.446;2022-08-07T01:45:55;6.82;;;5.32;;
46563;SDS011;32291;52.010;4.446;2022-08-07T01:46:59;5.00;;;4.50;;
46563;SDS011;32291;52.010;4.446;2022-08-07T01:48:02;5.13;;;4.72;;
46563;SDS011;32291;52.010;4.446;2022-08-07T01:49:06;5.10;;;4.60;;
46563;SDS011;32291;52.010;4.446;2022-08-07T01:50:10;5.55;;;4.93;;
46563;SDS011;32291;52.010;4.446;2022-08-07T01:51:15;6.20;;;4.80;;
46563;SDS011;32291;52.010;4.446;2022-08-07T01:52:25;5.53;;;4.95;;
46563;SDS011;32291;52.010;4.446;2022-08-07T01:53:35;5.75;;;4.80;;
46563;SDS011;32291;52.010;4.446;2022-08-07T01:54:46;6.03;;;5.20;;
46563;SDS011;32291;52.010;4.446;2022-08-07T01:55:54;4.95;;;4.55;;
46563;SDS011;32291;52.010;4.446;2022-08-07T01:58:30;5.18;;;4.78;;
46563;SDS011;32291;52.010;4.446;2022-08-07T02:01:08;4.80;;;4.40;;
46563;SDS011;32291;52.010;4.446;2022-08-07T02:02:19;5.15;;;4.75;;
46563;SDS011;32291;52.010;4.446;2022-08-07T02:03:52;5.50;;;4.70;;
46563;SDS011;32291;52.010;4.446;2022-08-07T02:05:11;5.40;;;4.32;;
46563;SDS011;32291;52.010;4.446;2022-08-07T02:06:28;5.57;;;4.88;;
46563;SDS011;32291;52.010;4.446;2022-08-07T02:07:38;4.88;;;4.38;;
46563;SDS011;32291;52.010;4.446;2022-08-07T02:08:51;5.03;;;4.22;;
46563;SDS011;32291;52.010;4.446;2022-08-07T02:09:55;4.40;;;3.88;;
46563;SDS011;32291;52.010;4.446;2022-08-07T02:11:00;5.00;;;4.60;;
46563;SDS011;32291;52.010;4.446;2022-08-07T02:12:07;4.97;;;4.50;;
46563;SDS011;32291;52.010;4.446;2022-08-07T02:13:16;4.60;;;4.20;;
46563;SDS011;32291;52.010;4.446;2022-08-07T02:14:30;4.72;;;4.32;;
46563;SDS011;32291;52.010;4.446;2022-08-07T02:15:38;5.35;;;4.30;;
46563;SDS011;32291;52.010;4.446;2022-08-07T02:16:43;5.00;;;4.50;;
46563;SDS011;32291;52.010;4.446;2022-08-07T02:17:50;5.07;;;4.63;;
46563;SDS011;32291;52.010;4.446;2022-08-07T02:18:55;4.72;;;4.32;;
46563;SDS011;32291;52.010;4.446;2022-08-07T02:19:58;4.78;;;4.38;;
46563;SDS011;32291;52.010;4.446;2022-08-07T02:21:04;4.95;;;4.55;;
46563;SDS011;32291;52.010;4.446;2022-08-07T02:22:10;4.40;;;4.00;;
46563;SDS011;32291;52.010;4.446;2022-08-07T02:23:16;5.40;;;4.50;;
46563;SDS011;32291;52.010;4.446;2022-08-07T02:24:20;4.65;;;4.25;;
46563;SDS011;32291;52.010;4.446;2022-08-07T02:25:26;4.47;;;4.07;;
46563;SDS011;32291;52.010;4.446;2022-08-07T02:26:35;4.65;;;4.20;;
46563;SDS011;32291;52.010;4.446;2022-08-07T02:27:40;5.15;;;4.65;;
46563;SDS011;32291;52.010;4.446;2022-08-07T02:28:46;4.88;;;4.38;;
46563;SDS011;32291;52.010;4.446;2022-08-07T02:29:48;4.88;;;4.47;;
46563;SDS011;32291;52.010;4.446;2022-08-07T02:30:54;4.95;;;4.53;;
46563;SDS011;32291;52.010;4.446;2022-08-07T02:32:01;6.22;;;5.00;;
46563;SDS011;32291;52.010;4.446;2022-08-07T02:33:06;4.97;;;4.40;;
46563;SDS011;32291;52.010;4.446;2022-08-07T02:34:12;5.22;;;4.70;;
46563;SDS011;32291;52.010;4.446;2022-08-07T02:35:18;5.15;;;4.65;;
46563;SDS011;32291;52.010;4.446;2022-08-07T02:36:22;4.93;;;4.53;;
46563;SDS011;32291;52.010;4.446;2022-08-07T02:37:30;5.70;;;4.85;;
46563;SDS011;32291;52.010;4.446;2022-08-07T02:38:36;4.95;;;4.55;;
46563;SDS011;32291;52.010;4.446;2022-08-07T02:39:42;5.45;;;4.95;;
46563;SDS011;32291;52.010;4.446;2022-08-07T02:40:48;4.75;;;4.30;;
46563;SDS011;32291;52.010;4.446;2022-08-07T02:41:52;4.75;;;4.35;;
46563;SDS011;32291;52.010;4.446;2022-08-07T02:42:57;5.40;;;4.93;;
46563;SDS011;32291;52.010;4.446;2022-08-07T02:44:00;5.50;;;5.00;;
46563;SDS011;32291;52.010;4.446;2022-08-07T02:45:07;5.47;;;4.93;;
46563;SDS011;32291;52.010;4.446;2022-08-07T02:46:17;4.72;;;4.38;;
46563;SDS011;32291;52.010;4.446;2022-08-07T02:47:25;5.55;;;4.60;;
46563;SDS011;32291;52.010;4.446;2022-08-07T02:48:27;5.03;;;4.63;;
46563;SDS011;32291;52.010;4.446;2022-08-07T02:49:30;4.68;;;4.28;;
46563;SDS011;32291;52.010;4.446;2022-08-07T02:50:35;5.05;;;4.65;;
46563;SDS011;32291;52.010;4.446;2022-08-07T02:51:51;5.50;;;5.00;;
46563;SDS011;32291;52.010;4.446;2022-08-07T02:53:03;5.40;;;4.90;;
46563;SDS011;32291;52.010;4.446;2022-08-07T02:54:23;5.43;;;4.43;;
46563;SDS011;32291;52.010;4.446;2022-08-07T02:55:30;5.40;;;4.90;;
46563;SDS011;32291;52.010;4.446;2022-08-07T02:56:39;5.43;;;4.93;;
46563;SDS011;32291;52.010;4.446;2022-08-07T02:57:46;4.50;;;4.20;;
46563;SDS011;32291;52.010;4.446;2022-08-07T02:58:54;5.00;;;4.60;;
46563;SDS011;32291;52.010;4.446;2022-08-07T03:00:03;4.80;;;4.40;;
46563;SDS011;32291;52.010;4.446;2022-08-07T03:01:07;5.47;;;4.97;;
46563;SDS011;32291;52.010;4.446;2022-08-07T03:02:12;4.80;;;4.40;;
46563;SDS011;32291;52.010;4.446;2022-08-07T03:03:16;4.70;;;4.30;;
46563;SDS011;32291;52.010;4.446;2022-08-07T03:04:23;5.30;;;4.90;;
46563;SDS011;32291;52.010;4.446;2022-08-07T03:05:28;5.15;;;4.68;;
46563;SDS011;32291;52.010;4.446;2022-08-07T03:06:31;5.60;;;5.10;;
46563;SDS011;32291;52.010;4.446;2022-08-07T03:07:35;5.53;;;5.03;;
46563;SDS011;32291;52.010;4.446;2022-08-07T03:08:40;5.82;;;4.80;;
46563;SDS011;32291;52.010;4.446;2022-08-07T03:09:45;4.82;;;4.43;;
46563;SDS011;32291;52.010;4.446;2022-08-07T03:10:48;5.22;;;4.53;;
46563;SDS011;32291;52.010;4.446;2022-08-07T03:11:51;5.55;;;5.05;;
46563;SDS011;32291;52.010;4.446;2022-08-07T03:12:55;5.38;;;4.88;;
46563;SDS011;32291;52.010;4.446;2022-08-07T03:13:58;7.05;;;4.68;;
46563;SDS011;32291;52.010;4.446;2022-08-07T03:15:05;5.32;;;4.82;;
46563;SDS011;32291;52.010;4.446;2022-08-07T03:16:09;5.85;;;5.35;;
46563;SDS011;32291;52.010;4.446;2022-08-07T03:17:11;5.30;;;4.90;;
46563;SDS011;32291;52.010;4.446;2022-08-07T03:18:15;6.18;;;5.28;;
46563;SDS011;32291;52.010;4.446;2022-08-07T03:19:19;5.35;;;4.88;;
46563;SDS011;32291;52.010;4.446;2022-08-07T03:20:22;5.25;;;4.75;;
46563;SDS011;32291;52.010;4.446;2022-08-07T03:21:26;5.50;;;5.05;;
46563;SDS011;32291;52.010;4.446;2022-08-07T03:22:30;5.63;;;5.13;;
46563;SDS011;32291;52.010;4.446;2022-08-07T03:23:34;5.43;;;4.45;;
46563;SDS011;32291;52.010;4.446;2022-08-07T03:24:41;5.20;;;4.75;;
46563;SDS011;32291;52.010;4.446;2022-08-07T03:25:43;4.97;;;4.57;;
46563;SDS011;32291;52.010;4.446;2022-08-07T03:26:47;6.03;;;4.55;;
46563;SDS011;32291;52.010;4.446;2022-08-07T03:27:53;5.75;;;4.95;;
46563;SDS011;32291;52.010;4.446;2022-08-07T03:28:59;4.90;;;4.50;;
46563;SDS011;32291;52.010;4.446;2022-08-07T03:30:05;5.68;;;5.18;;
46563;SDS011;32291;52.010;4.446;2022-08-07T03:31:09;6.22;;;4.40;;
46563;SDS011;32291;52.010;4.446;2022-08-07T03:32:21;5.75;;;5.13;;
46563;SDS011;32291;52.010;4.446;2022-08-07T03:33:41;5.22;;;4.82;;
46563;SDS011;32291;52.010;4.446;2022-08-07T03:34:58;4.80;;;4.30;;
46563;SDS011;32291;52.010;4.446;2022-08-07T03:36:04;5.03;;;4.53;;
46563;SDS011;32291;52.010;4.446;2022-08-07T03:37:08;4.15;;;3.85;;
46563;SDS011;32291;52.010;4.446;2022-08-07T03:38:13;5.68;;;4.55;;
46563;SDS011;32291;52.010;4.446;2022-08-07T03:39:17;5.10;;;4.70;;
46563;SDS011;32291;52.010;4.446;2022-08-07T03:40:27;5.00;;;4.50;;
46563;SDS011;32291;52.010;4.446;2022-08-07T03:41:31;4.93;;;4.50;;
46563;SDS011;32291;52.010;4.446;2022-08-07T03:42:36;5.32;;;4.82;;
46563;SDS011;32291;52.010;4.446;2022-08-07T03:43:39;6.43;;;4.82;;
46563;SDS011;32291;52.010;4.446;2022-08-07T03:44:43;5.47;;;4.35;;
46563;SDS011;32291;52.010;4.446;2022-08-07T03:45:46;6.20;;;5.05;;
46563;SDS011;32291;52.010;4.446;2022-08-07T03:46:49;5.60;;;5.15;;
46563;SDS011;32291;52.010;4.446;2022-08-07T03:47:52;5.53;;;5.03;;
46563;SDS011;32291;52.010;4.446;2022-08-07T03:48:56;4.90;;;4.50;;
46563;SDS011;32291;52.010;4.446;2022-08-07T03:49:59;4.93;;;4.22;;
46563;SDS011;32291;52.010;4.446;2022-08-07T03:51:04;5.28;;;4.75;;
46563;SDS011;32291;52.010;4.446;2022-08-07T03:52:08;5.22;;;4.53;;
46563;SDS011;32291;52.010;4.446;2022-08-07T03:53:12;5.60;;;4.55;;
46563;SDS011;32291;52.010;4.446;2022-08-07T03:54:17;5.95;;;4.53;;
46563;SDS011;32291;52.010;4.446;2022-08-07T03:55:19;4.75;;;4.35;;
46563;SDS011;32291;52.010;4.446;2022-08-07T03:56:21;6.13;;;4.50;;
46563;SDS011;32291;52.010;4.446;2022-08-07T03:57:31;5.28;;;4.78;;
46563;SDS011;32291;52.010;4.446;2022-08-07T03:58:35;5.88;;;4.97;;
46563;SDS011;32291;52.010;4.446;2022-08-07T03:59:39;4.90;;;4.32;;
46563;SDS011;32291;52.010;4.446;2022-08-07T04:00:43;6.00;;;4.40;;
46563;SDS011;32291;52.010;4.446;2022-08-07T04:01:48;4.85;;;4.40;;
46563;SDS011;32291;52.010;4.446;2022-08-07T04:02:56;4.93;;;4.53;;
46563;SDS011;32291;52.010;4.446;2022-08-07T04:04:01;4.95;;;4.55;;
46563;SDS011;32291;52.010;4.446;2022-08-07T04:05:03;6.03;;;4.13;;
46563;SDS011;32291;52.010;4.446;2022-08-07T04:06:07;5.50;;;4.53;;
46563;SDS011;32291;52.010;4.446;2022-08-07T04:07:11;5.30;;;4.63;;
46563;SDS011;32291;52.010;4.446;2022-08-07T04:08:17;5.50;;;4.85;;
46563;SDS011;32291;52.010;4.446;2022-08-07T04:09:21;5.47;;;4.97;;
46563;SDS011;32291;52.010;4.446;2022-08-07T04:10:24;5.60;;;5.10;;
46563;SDS011;32291;52.010;4.446;2022-08-07T04:11:26;5.43;;;4.93;;
46563;SDS011;32291;52.010;4.446;2022-08-07T04:12:29;5.05;;;4.55;;
46563;SDS011;32291;52.010;4.446;2022-08-07T04:13:32;5.40;;;4.90;;
46563;SDS011;32291;52.010;4.446;2022-08-07T04:14:37;5.25;;;4.75;;
46563;SDS011;32291;52.010;4.446;2022-08-07T04:15:41;5.82;;;4.60;;
46563;SDS011;32291;52.010;4.446;2022-08-07T04:16:45;5.00;;;4.57;;
46563;SDS011;32291;52.010;4.446;2022-08-07T04:17:55;5.10;;;4.60;;
46563;SDS011;32291;52.010;4.446;2022-08-07T04:18:58;5.05;;;4.55;;
46563;SDS011;32291;52.010;4.446;2022-08-07T04:20:04;4.28;;;3.95;;
46563;SDS011;32291;52.010;4.446;2022-08-07T04:21:11;5.00;;;4.60;;
46563;SDS011;32291;52.010;4.446;2022-08-07T04:22:15;4.50;;;4.07;;
46563;SDS011;32291;52.010;4.446;2022-08-07T04:23:19;4.90;;;4.50;;
46563;SDS011;32291;52.010;4.446;2022-08-07T04:24:24;4.80;;;4.40;;
46563;SDS011;32291;52.010;4.446;2022-08-07T04:25:28;5.30;;;4.55;;
46563;SDS011;32291;52.010;4.446;2022-08-07T04:26:32;5.60;;;4.47;;
46563;SDS011;32291;52.010;4.446;2022-08-07T04:27:34;4.57;;;4.18;;
46563;SDS011;32291;52.010;4.446;2022-08-07T04:28:37;4.43;;;4.03;;
46563;SDS011;32291;52.010;4.446;2022-08-07T04:29:42;4.70;;;4.30;;
46563;SDS011;32291;52.010;4.446;2022-08-07T04:30:48;5.18;;;4.78;;
46563;SDS011;32291;52.010;4.446;2022-08-07T04:31:51;6.00;;;5.40;;
46563;SDS011;32291;52.010;4.446;2022-08-07T04:32:57;6.15;;;5.57;;
46563;SDS011;32291;52.010;4.446;2022-08-07T04:34:01;6.57;;;4.95;;
46563;SDS011;32291;52.010;4.446;2022-08-07T04:35:05;5.03;;;4.63;;
46563;SDS011;32291;52.010;4.446;2022-08-07T04:36:09;5.57;;;5.07;;
46563;SDS011;32291;52.010;4.446;2022-08-07T04:37:12;5.40;;;4.90;;
46563;SDS011;32291;52.010;4.446;2022-08-07T04:38:14;5.28;;;4.78;;
46563;SDS011;32291;52.010;4.446;2022-08-07T04:39:16;7.30;;;5.72;;
46563;SDS011;32291;52.010;4.446;2022-08-07T04:40:18;5.75;;;5.25;;
46563;SDS011;32291;52.010;4.446;2022-08-07T04:41:21;7.18;;;5.70;;
46563;SDS011;32291;52.010;4.446;2022-08-07T04:42:23;5.90;;;5.30;;
46563;SDS011;32291;52.010;4.446;2022-08-07T04:43:29;5.25;;;4.75;;
46563;SDS011;32291;52.010;4.446;2022-08-07T04:44:38;5.43;;;4.93;;
46563;SDS011;32291;52.010;4.446;2022-08-07T04:50:30;6.68;;;5.18;;
46563;SDS011;32291;52.010;4.446;2022-08-07T04:53:26;5.85;;;4.25;;
46563;SDS011;32291;52.010;4.446;2022-08-07T04:54:54;4.80;;;4.32;;
46563;SDS011;32291;52.010;4.446;2022-08-07T04:56:29;8.82;;;4.93;;
46563;SDS011;32291;52.010;4.446;2022-08-07T04:59:29;5.43;;;4.85;;
46563;SDS011;32291;52.010;4.446;2022-08-07T05:00:48;5.07;;;4.63;;
46563;SDS011;32291;52.010;4.446;2022-08-07T05:02:21;5.18;;;4.68;;
46563;SDS011;32291;52.010;4.446;2022-08-07T05:03:43;4.90;;;4.50;;
46563;SDS011;32291;52.010;4.446;2022-08-07T05:05:20;5.13;;;4.72;;
46563;SDS011;32291;52.010;4.446;2022-08-07T05:06:45;5.07;;;4.68;;
46563;SDS011;32291;52.010;4.446;2022-08-07T05:08:11;5.30;;;4.85;;
46563;SDS011;32291;52.010;4.446;2022-08-07T05:09:28;4.65;;;4.28;;
46563;SDS011;32291;52.010;4.446;2022-08-07T05:10:46;4.93;;;4.32;;
46563;SDS011;32291;52.010;4.446;2022-08-07T05:12:18;5.18;;;4.68;;
46563;SDS011;32291;52.010;4.446;2022-08-07T05:13:36;5.90;;;4.60;;
46563;SDS011;32291;52.010;4.446;2022-08-07T05:14:56;5.00;;;4.50;;
46563;SDS011;32291;52.010;4.446;2022-08-07T05:16:16;6.15;;;4.40;;
46563;SDS011;32291;52.010;4.446;2022-08-07T05:17:24;5.15;;;4.72;;
46563;SDS011;32291;52.010;4.446;2022-08-07T05:18:44;4.80;;;4.30;;
46563;SDS011;32291;52.010;4.446;2022-08-07T05:19:56;5.15;;;4.40;;
46563;SDS011;32291;52.010;4.446;2022-08-07T05:21:01;5.53;;;4.53;;
46563;SDS011;32291;52.010;4.446;2022-08-07T05:22:12;4.88;;;4.50;;
46563;SDS011;32291;52.010;4.446;2022-08-07T05:23:19;4.90;;;4.35;;
46563;SDS011;32291;52.010;4.446;2022-08-07T05:24:50;6.28;;;5.00;;
46563;SDS011;32291;52.010;4.446;2022-08-07T05:25:57;5.10;;;4.38;;
46563;SDS011;32291;52.010;4.446;2022-08-07T05:27:04;6.82;;;5.53;;
46563;SDS011;32291;52.010;4.446;2022-08-07T05:28:13;5.70;;;5.10;;
46563;SDS011;32291;52.010;4.446;2022-08-07T05:29:19;5.32;;;4.82;;
46563;SDS011;32291;52.010;4.446;2022-08-07T05:30:25;7.13;;;5.30;;
46563;SDS011;32291;52.010;4.446;2022-08-07T05:31:34;4.93;;;4.53;;
46563;SDS011;32291;52.010;4.446;2022-08-07T05:32:42;4.80;;;4.40;;
46563;SDS011;32291;52.010;4.446;2022-08-07T05:33:48;3.97;;;3.58;;
46563;SDS011;32291;52.010;4.446;2022-08-07T05:34:53;5.25;;;4.75;;
46563;SDS011;32291;52.010;4.446;2022-08-07T05:35:58;5.22;;;4.82;;
46563;SDS011;32291;52.010;4.446;2022-08-07T05:37:03;5.15;;;4.75;;
46563;SDS011;32291;52.010;4.446;2022-08-07T05:38:08;5.53;;;4.78;;
46563;SDS011;32291;52.010;4.446;2022-08-07T05:39:12;6.32;;;5.50;;
46563;SDS011;32291;52.010;4.446;2022-08-07T05:40:20;5.35;;;4.90;;
46563;SDS011;32291;52.010;4.446;2022-08-07T05:41:23;6.03;;;5.40;;
46563;SDS011;32291;52.010;4.446;2022-08-07T05:42:26;5.45;;;4.95;;
46563;SDS011;32291;52.010;4.446;2022-08-07T05:43:29;6.28;;;5.20;;
46563;SDS011;32291;52.010;4.446;2022-08-07T05:44:34;5.70;;;5.20;;
46563;SDS011;32291;52.010;4.446;2022-08-07T05:45:39;5.85;;;5.28;;
46563;SDS011;32291;52.010;4.446;2022-08-07T05:46:43;6.57;;;5.43;;
46563;SDS011;32291;52.010;4.446;2022-08-07T05:47:51;6.05;;;4.93;;
46563;SDS011;32291;52.010;4.446;2022-08-07T05:48:55;4.82;;;4.38;;
46563;SDS011;32291;52.010;4.446;2022-08-07T05:49:59;5.00;;;4.60;;
46563;SDS011;32291;52.010;4.446;2022-08-07T05:51:04;5.80;;;4.85;;
46563;SDS011;32291;52.010;4.446;2022-08-07T05:52:09;5.75;;;5.28;;
46563;SDS011;32291;52.010;4.446;2022-08-07T05:53:11;5.78;;;5.28;;
46563;SDS011;32291;52.010;4.446;2022-08-07T05:54:16;6.03;;;5.50;;
46563;SDS011;32291;52.010;4.446;2022-08-07T05:55:19;5.43;;;5.03;;
46563;SDS011;32291;52.010;4.446;2022-08-07T05:56:22;6.13;;;5.45;;
46563;SDS011;32291;52.010;4.446;2022-08-07T05:57:28;6.35;;;5.82;;
46563;SDS011;32291;52.010;4.446;2022-08-07T05:58:31;5.75;;;5.25;;
46563;SDS011;32291;52.010;4.446;2022-08-07T05:59:37;5.40;;;4.82;;
46563;SDS011;32291;52.010;4.446;2022-08-07T06:00:45;5.68;;;5.13;;
46563;SDS011;32291;52.010;4.446;2022-08-07T06:01:50;6.20;;;5.60;;
46563;SDS011;32291;52.010;4.446;2022-08-07T06:02:55;6.03;;;5.47;;
46563;SDS011;32291;52.010;4.446;2022-08-07T06:04:02;6.05;;;5.53;;
46563;SDS011;32291;52.010;4.446;2022-08-07T06:05:09;5.38;;;4.97;;
46563;SDS011;32291;52.010;4.446;2022-08-07T06:06:15;6.07;;;5.45;;
46563;SDS011;32291;52.010;4.446;2022-08-07T06:07:19;6.35;;;5.47;;
46563;SDS011;32291;52.010;4.446;2022-08-07T06:08:23;6.40;;;5.80;;
46563;SDS011;32291;52.010;4.446;2022-08-07T06:09:27;6.43;;;5.78;;
46563;SDS011;32291;52.010;4.446;2022-08-07T06:10:30;6.32;;;5.72;;
46563;SDS011;32291;52.010;4.446;2022-08-07T06:11:33;6.45;;;5.88;;
46563;SDS011;32291;52.010;4.446;2022-08-07T06:12:37;7.30;;;6.70;;
46563;SDS011;32291;52.010;4.446;2022-08-07T06:13:39;10.65;;;5.95;;
46563;SDS011;32291;52.010;4.446;2022-08-07T06:14:41;7.68;;;6.40;;
46563;SDS011;32291;52.010;4.446;2022-08-07T06:15:44;8.23;;;7.43;;
46563;SDS011;32291;52.010;4.446;2022-08-07T06:16:49;7.75;;;7.07;;
46563;SDS011;32291;52.010;4.446;2022-08-07T06:17:54;8.02;;;7.15;;
46563;SDS011;32291;52.010;4.446;2022-08-07T06:19:01;7.25;;;6.60;;
46563;SDS011;32291;52.010;4.446;2022-08-07T06:20:05;7.03;;;6.32;;
46563;SDS011;32291;52.010;4.446;2022-08-07T06:21:12;6.97;;;6.10;;
46563;SDS011;32291;52.010;4.446;2022-08-07T06:22:17;6.78;;;6.18;;
46563;SDS011;32291;52.010;4.446;2022-08-07T06:23:20;6.28;;;5.78;;
46563;SDS011;32291;52.010;4.446;2022-08-07T06:24:23;7.32;;;6.25;;
46563;SDS011;32291;52.010;4.446;2022-08-07T06:25:25;8.40;;;7.40;;
46563;SDS011;32291;52.010;4.446;2022-08-07T06:26:27;6.20;;;5.68;;
46563;SDS011;32291;52.010;4.446;2022-08-07T06:27:29;6.82;;;6.10;;
46563;SDS011;32291;52.010;4.446;2022-08-07T06:28:34;8.05;;;6.53;;
46563;SDS011;32291;52.010;4.446;2022-08-07T06:29:58;8.52;;;7.53;;
46563;SDS011;32291;52.010;4.446;2022-08-07T06:31:01;8.95;;;8.20;;
46563;SDS011;32291;52.010;4.446;2022-08-07T06:32:03;8.43;;;7.72;;
46563;SDS011;32291;52.010;4.446;2022-08-07T06:33:05;9.98;;;8.85;;
46563;SDS011;32291;52.010;4.446;2022-08-07T06:34:07;7.60;;;7.00;;
46563;SDS011;32291;52.010;4.446;2022-08-07T06:35:09;8.90;;;8.07;;
46563;SDS011;32291;52.010;4.446;2022-08-07T06:36:11;8.73;;;8.02;;
46563;SDS011;32291;52.010;4.446;2022-08-07T06:37:13;8.18;;;7.47;;
46563;SDS011;32291;52.010;4.446;2022-08-07T06:38:15;9.70;;;8.70;;
46563;SDS011;32291;52.010;4.446;2022-08-07T06:39:18;8.82;;;8.02;;
46563;SDS011;32291;52.010;4.446;2022-08-07T06:40:21;9.20;;;8.02;;
46563;SDS011;32291;52.010;4.446;2022-08-07T06:43:08;9.43;;;7.70;;
46563;SDS011;32291;52.010;4.446;2022-08-07T06:44:13;7.57;;;6.78;;
46563;SDS011;32291;52.010;4.446;2022-08-07T06:45:19;9.48;;;8.40;;
46563;SDS011;32291;52.010;4.446;2022-08-07T06:46:25;8.20;;;7.50;;
46563;SDS011;32291;52.010;4.446;2022-08-07T06:47:27;7.47;;;6.18;;
46563;SDS011;32291;52.010;4.446;2022-08-07T06:48:29;6.75;;;6.15;;
46563;SDS011;32291;52.010;4.446;2022-08-07T06:49:33;7.97;;;7.28;;
46563;SDS011;32291;52.010;4.446;2022-08-07T06:50:38;6.18;;;5.68;;